Time;durP1;ratioP1;P1;durP2;ratioP2;P2;SDS_P1;SDS_P2;PMS_P1;PMS_P2;Temp;Humidity;BMP_temperature;BMP_pressure;BME280_temperature;BME280_humidity;BME280_pressure;Samples;Min_cycle;Max_cycle;Signal;HPM_P1;HPM_P2
2023/01/27 00:01:42;;;;;;;16.33;3.58;;;6.50;99.90;;;;;;4964948;28;20081;-92
2023/01/27 00:04:07;;;;;;;13.23;3.97;;;6.50;99.90;;;;;;4964995;28;20517;-90
2023/01/27 00:06:38;;;;;;;11.85;3.97;;;6.50;99.90;;;;;;4963534;28;20046;-90
2023/01/27 00:09:04;;;;;;;14.88;3.83;;;6.50;99.90;;;;;;4962199;28;20042;-90
2023/01/27 00:14:26;;;;;;;14.48;3.90;;;6.50;99.90;;;;;;4967220;28;20050;-91
2023/01/27 00:17:22;;;;;;;14.25;3.90;;;6.50;99.90;;;;;;4945953;28;20472;-92
2023/01/27 00:19:49;;;;;;;22.48;5.07;;;6.40;99.90;;;;;;4995779;28;20066;-89
2023/01/27 00:28:32;;;;;;;17.85;3.42;;;6.40;99.90;;;;;;4995354;28;20025;-89
2023/01/27 00:31:00;;;;;;;13.43;3.75;;;6.40;99.90;;;;;;4945847;28;20518;-89
2023/01/27 00:33:29;;;;;;;14.05;3.15;;;6.30;99.90;;;;;;4963232;28;20038;-89
2023/01/27 00:36:06;;;;;;;10.80;4.00;;;6.30;99.90;;;;;;4981225;28;20037;-90
2023/01/27 00:38:39;;;;;;;14.07;3.33;;;6.40;99.90;;;;;;4981288;28;20193;-90
2023/01/27 00:41:21;;;;;;;14.18;4.45;;;6.40;99.90;;;;;;4981472;28;20038;-90
2023/01/27 00:43:50;;;;;;;13.23;3.55;;;6.40;99.90;;;;;;4967390;28;20494;-93
2023/01/27 00:46:23;;;;;;;14.10;3.90;;;6.30;99.90;;;;;;4981358;28;20026;-90
2023/01/27 00:49:06;;;;;;;16.05;4.20;;;6.30;99.90;;;;;;4980358;28;20034;-91
2023/01/27 00:51:32;;;;;;;14.60;4.32;;;6.30;99.90;;;;;;4982118;28;20045;-91
2023/01/27 00:53:58;;;;;;;13.75;3.88;;;6.30;99.90;;;;;;4965293;28;20035;-91
2023/01/27 00:56:24;;;;;;;11.82;4.57;;;6.30;99.90;;;;;;4981336;28;20044;-90
2023/01/27 00:58:49;;;;;;;13.48;4.45;;;6.30;99.90;;;;;;4964788;28;20546;-90
2023/01/27 01:01:16;;;;;;;14.23;4.38;;;6.30;99.90;;;;;;4964926;28;20041;-91
2023/01/27 01:03:42;;;;;;;14.20;4.05;;;6.30;99.90;;;;;;4980644;28;20432;-90
2023/01/27 01:06:11;;;;;;;19.77;5.13;;;6.30;99.90;;;;;;4964639;28;20034;-90
2023/01/27 01:08:41;;;;;;;11.13;4.35;;;6.30;99.90;;;;;;4997998;28;20109;-90
2023/01/27 01:11:12;;;;;;;13.07;4.57;;;6.30;99.90;;;;;;4980691;28;20034;-90
2023/01/27 01:13:38;;;;;;;13.02;4.20;;;6.30;99.90;;;;;;4980642;28;20045;-90
2023/01/27 01:16:10;;;;;;;11.18;4.05;;;6.30;99.90;;;;;;4980540;28;20034;-90
2023/01/27 01:18:42;;;;;;;10.30;4.43;;;6.30;99.90;;;;;;4980694;28;20042;-90
2023/01/27 01:21:26;;;;;;;17.83;5.07;;;6.20;99.90;;;;;;4949267;28;20038;-90
2023/01/27 01:23:52;;;;;;;19.20;5.88;;;6.20;99.90;;;;;;4980461;28;20093;-90
2023/01/27 01:26:23;;;;;;;15.73;5.53;;;6.20;99.90;;;;;;4980692;28;20034;-90
2023/01/27 01:28:48;;;;;;;12.77;4.80;;;6.20;99.90;;;;;;4980519;28;20031;-90
2023/01/27 01:31:39;;;;;;;12.23;4.97;;;6.20;99.90;;;;;;4964818;28;20048;-90
2023/01/27 01:34:05;;;;;;;13.05;5.10;;;6.20;99.90;;;;;;4952132;28;20559;-89
2023/01/27 01:36:33;;;;;;;20.05;5.68;;;6.20;99.90;;;;;;4964332;28;20101;-90
2023/01/27 01:38:58;;;;;;;22.20;6.47;;;6.20;99.90;;;;;;4964203;28;20038;-90
2023/01/27 01:41:36;;;;;;;16.23;6.88;;;6.20;99.90;;;;;;4964477;28;20039;-91
2023/01/27 01:44:31;;;;;;;13.75;5.82;;;6.10;99.90;;;;;;4953454;28;20045;-90
2023/01/27 01:47:07;;;;;;;15.52;5.80;;;6.10;99.90;;;;;;4991434;28;20081;-91
2023/01/27 01:49:38;;;;;;;13.48;5.32;;;6.10;99.90;;;;;;4941713;29;20150;-91
2023/01/27 01:52:21;;;;;;;11.65;5.63;;;6.10;99.90;;;;;;4942464;29;20523;-91
2023/01/27 01:57:54;;;;;;;13.93;6.35;;;6.10;99.90;;;;;;4957464;29;20110;-90
2023/01/27 02:00:20;;;;;;;17.30;6.15;;;6.10;99.90;;;;;;4925024;29;20097;-90
2023/01/27 02:02:55;;;;;;;16.20;6.47;;;6.10;99.90;;;;;;4940231;29;20035;-90
2023/01/27 02:05:42;;;;;;;12.60;5.80;;;6.10;99.90;;;;;;4924858;29;20400;-89
2023/01/27 02:08:52;;;;;;;12.80;6.38;;;6.10;99.90;;;;;;4969668;28;20395;-90
2023/01/27 02:11:31;;;;;;;13.93;6.20;;;6.10;99.90;;;;;;4921564;29;20039;-89
2023/01/27 02:14:00;;;;;;;15.20;6.53;;;6.00;99.90;;;;;;4947043;28;20038;-89
2023/01/27 02:16:26;;;;;;;17.45;7.68;;;6.00;99.90;;;;;;4979111;28;20450;-91
2023/01/27 02:19:29;;;;;;;17.60;6.70;;;6.00;99.90;;;;;;4978680;28;20027;-89
2023/01/27 02:21:56;;;;;;;11.35;5.97;;;6.00;99.90;;;;;;5015022;28;20475;-89
2023/01/27 02:24:31;;;;;;;19.02;7.60;;;6.00;99.90;;;;;;4998561;28;20036;-90
2023/01/27 02:27:13;;;;;;;;;;;;;;;;;;;;;
2023/01/27 02:29:44;;;;;;;13.70;6.93;;;6.00;99.90;;;;;;5015034;28;20498;-89
2023/01/27 02:32:35;;;;;;;14.95;6.65;;;6.00;99.90;;;;;;4982974;28;20117;-91
2023/01/27 02:35:02;;;;;;;18.73;7.97;;;6.00;99.90;;;;;;4984742;28;20394;-91
2023/01/27 02:40:13;;;;;;;16.55;7.75;;;6.00;99.90;;;;;;5007308;28;20521;-91
2023/01/27 02:43:10;;;;;;;21.65;8.15;;;6.00;99.90;;;;;;5024765;28;20124;-91
2023/01/27 02:45:36;;;;;;;14.95;7.63;;;6.00;99.90;;;;;;5007963;28;20038;-91
2023/01/27 02:48:08;;;;;;;19.48;8.77;;;6.00;99.90;;;;;;5000363;28;20034;-89
2023/01/27 02:57:19;;;;;;;19.25;9.02;;;6.00;99.90;;;;;;5015088;28;20137;-89
2023/01/27 02:59:45;;;;;;;24.95;10.15;;;6.00;99.90;;;;;;5014165;28;20034;-89
2023/01/27 03:02:21;;;;;;;25.75;10.23;;;6.00;99.90;;;;;;4998067;28;20045;-89
2023/01/27 03:05:01;;;;;;;20.88;9.88;;;6.00;99.90;;;;;;4981266;28;20422;-91
2023/01/27 03:07:35;;;;;;;24.98;10.85;;;6.00;99.90;;;;;;4997758;28;20129;-91
2023/01/27 03:10:01;;;;;;;22.92;11.52;;;6.00;99.90;;;;;;4997773;28;20064;-91
2023/01/27 03:12:27;;;;;;;23.35;10.57;;;5.90;99.90;;;;;;5014972;28;20065;-90
2023/01/27 03:20:57;;;;;;;18.02;10.93;;;5.90;99.90;;;;;;5002419;28;20053;-92
2023/01/27 03:23:26;;;;;;;22.25;12.23;;;5.90;99.90;;;;;;5022935;28;20045;-89
2023/01/27 03:25:52;;;;;;;26.88;12.10;;;5.90;99.90;;;;;;5014438;28;20045;-90
2023/01/27 03:28:18;;;;;;;27.27;15.38;;;5.90;99.90;;;;;;4998047;28;20034;-89
2023/01/27 03:30:43;;;;;;;25.08;12.63;;;5.90;99.90;;;;;;4997972;28;20034;-89
2023/01/27 03:33:12;;;;;;;25.30;13.20;;;5.90;99.90;;;;;;4997801;28;20037;-89
2023/01/27 03:35:38;;;;;;;20.15;12.32;;;5.90;99.90;;;;;;4997877;28;20034;-89
2023/01/27 03:46:44;;;;;;;21.92;12.45;;;5.90;99.90;;;;;;5015237;28;20095;-91
2023/01/27 03:49:09;;;;;;;20.23;12.02;;;5.90;99.90;;;;;;5013803;28;20113;-89
2023/01/27 03:51:36;;;;;;;20.75;12.10;;;5.90;99.90;;;;;;4997446;28;20026;-90
2023/01/27 03:54:02;;;;;;;17.30;11.48;;;5.90;99.90;;;;;;5014020;28;20048;-90
2023/01/27 03:56:28;;;;;;;19.85;11.18;;;5.80;99.90;;;;;;5013601;28;20038;-91
2023/01/27 03:58:56;;;;;;;17.75;10.98;;;5.80;99.90;;;;;;5012745;28;20053;-91
2023/01/27 04:01:31;;;;;;;15.13;10.00;;;5.80;99.90;;;;;;4997491;28;20045;-91
2023/01/27 04:06:50;;;;;;;14.10;8.65;;;5.80;99.90;;;;;;4998945;28;20096;-91
2023/01/27 04:09:24;;;;;;;14.02;9.40;;;5.80;99.90;;;;;;4968214;28;20038;-91
2023/01/27 04:18:10;;;;;;;13.95;9.45;;;5.80;99.90;;;;;;5001851;28;20114;-91
2023/01/27 04:20:36;;;;;;;13.52;9.02;;;5.80;99.90;;;;;;4985037;28;20027;-91
2023/01/27 04:23:04;;;;;;;15.73;9.15;;;5.80;99.90;;;;;;4952798;28;20483;-91
2023/01/27 04:25:30;;;;;;;13.25;8.35;;;5.80;99.90;;;;;;4952032;28;20042;-91
2023/01/27 04:28:08;;;;;;;19.15;9.13;;;5.80;99.90;;;;;;4973367;28;20464;-91
2023/01/27 04:30:37;;;;;;;15.38;9.10;;;5.80;99.90;;;;;;4983926;28;20509;-91
2023/01/27 04:33:26;;;;;;;13.50;8.25;;;5.80;99.90;;;;;;4967415;28;20122;-90
2023/01/27 04:36:12;;;;;;;13.40;7.97;;;5.80;99.90;;;;;;4974652;28;20030;-89
2023/01/27 04:38:44;;;;;;;11.95;7.35;;;5.80;99.90;;;;;;4984688;28;20073;-90
2023/01/27 04:41:10;;;;;;;11.18;7.65;;;5.80;99.90;;;;;;4968332;28;20042;-90
2023/01/27 04:43:39;;;;;;;11.85;7.30;;;5.70;99.90;;;;;;4984738;28;20583;-90
2023/01/27 04:46:11;;;;;;;10.48;6.70;;;5.70;99.90;;;;;;4984845;28;20113;-90
2023/01/27 04:48:42;;;;;;;11.07;7.47;;;5.70;99.90;;;;;;4983798;28;20061;-90
2023/01/27 04:51:30;;;;;;;10.77;6.95;;;5.70;99.90;;;;;;4968272;28;20058;-89
2023/01/27 04:53:59;;;;;;;11.98;6.55;;;5.70;99.90;;;;;;4983627;28;20030;-89
2023/01/27 04:56:58;;;;;;;11.68;7.38;;;5.70;99.90;;;;;;4984284;28;20443;-91
2023/01/27 04:59:24;;;;;;;10.00;6.78;;;5.80;99.90;;;;;;4983738;28;20117;-91
2023/01/27 05:01:54;;;;;;;10.25;6.63;;;5.80;99.90;;;;;;4984244;28;20034;-91
2023/01/27 05:04:25;;;;;;;11.15;6.95;;;5.80;99.90;;;;;;4984459;28;20492;-91
2023/01/27 05:06:57;;;;;;;10.27;6.55;;;5.80;99.90;;;;;;4985843;28;20522;-91
2023/01/27 05:09:32;;;;;;;11.85;7.63;;;5.80;99.90;;;;;;5004055;28;20125;-91
2023/01/27 05:12:03;;;;;;;12.57;7.03;;;5.80;99.90;;;;;;5002858;28;20038;-90
2023/01/27 05:14:29;;;;;;;9.48;6.50;;;5.80;99.90;;;;;;4987424;28;20477;-90
2023/01/27 05:16:57;;;;;;;12.77;6.95;;;5.80;99.90;;;;;;5003378;28;20133;-90
2023/01/27 05:19:23;;;;;;;9.13;6.13;;;5.80;99.90;;;;;;5001169;28;20513;-91
2023/01/27 05:21:49;;;;;;;9.57;6.03;;;5.80;99.90;;;;;;5000308;28;20038;-91
2023/01/27 05:24:24;;;;;;;9.95;6.55;;;5.80;99.90;;;;;;4984092;28;20438;-91
2023/01/27 05:26:53;;;;;;;8.30;5.50;;;5.80;99.90;;;;;;5002496;28;20041;-91
2023/01/27 05:29:18;;;;;;;8.98;6.18;;;5.80;99.90;;;;;;5003927;28;20033;-92
2023/01/27 05:32:22;;;;;;;10.23;5.72;;;5.80;99.90;;;;;;5003847;28;20528;-91
2023/01/27 05:35:12;;;;;;;8.52;5.30;;;5.80;99.90;;;;;;4941145;29;20043;-89
2023/01/27 05:38:24;;;;;;;9.27;5.50;;;5.80;99.90;;;;;;4924837;29;20040;-89
2023/01/27 05:41:13;;;;;;;8.38;5.10;;;5.80;99.90;;;;;;4940985;29;20039;-90
2023/01/27 05:43:52;;;;;;;8.35;5.45;;;5.80;99.90;;;;;;4956667;29;20090;-89
2023/01/27 05:46:26;;;;;;;7.82;5.30;;;5.80;99.90;;;;;;5009169;28;20033;-90
2023/01/27 05:49:01;;;;;;;7.70;4.85;;;5.80;99.90;;;;;;5003513;28;20037;-90
2023/01/27 05:54:40;;;;;;;8.52;4.75;;;5.80;99.90;;;;;;5006952;28;20030;-91
2023/01/27 05:57:08;;;;;;;8.15;4.95;;;5.80;99.90;;;;;;4969500;28;20078;-89
2023/01/27 05:59:34;;;;;;;8.15;5.15;;;5.80;99.90;;;;;;4985569;28;20098;-89
2023/01/27 06:02:06;;;;;;;6.65;4.45;;;5.80;99.90;;;;;;4985711;28;20038;-90
2023/01/27 06:04:31;;;;;;;9.70;5.20;;;5.80;99.90;;;;;;4986369;28;20042;-89
2023/01/27 06:07:25;;;;;;;7.80;5.05;;;5.80;99.90;;;;;;4969094;28;20053;-89
2023/01/27 06:09:59;;;;;;;10.07;5.53;;;5.80;99.90;;;;;;4948455;28;20058;-91
2023/01/27 06:12:46;;;;;;;6.80;4.97;;;5.80;99.90;;;;;;4993286;28;20071;-90
2023/01/27 06:15:12;;;;;;;8.85;5.63;;;5.90;99.90;;;;;;5003479;28;20033;-90
2023/01/27 06:17:41;;;;;;;9.32;5.95;;;5.80;99.90;;;;;;4986250;28;20047;-90
2023/01/27 06:20:15;;;;;;;7.65;5.15;;;5.80;99.90;;;;;;5018617;28;20034;-90
2023/01/27 06:22:50;;;;;;;9.02;5.22;;;5.80;99.90;;;;;;5002356;28;20107;-90
2023/01/27 06:26:01;;;;;;;7.97;5.13;;;5.80;99.90;;;;;;5018844;28;20035;-91
2023/01/27 06:28:30;;;;;;;7.80;5.13;;;5.80;99.90;;;;;;5019572;28;20044;-91
2023/01/27 06:31:06;;;;;;;8.50;4.97;;;5.80;99.90;;;;;;5009541;28;20037;-90
2023/01/27 06:33:32;;;;;;;8.73;5.18;;;5.90;99.90;;;;;;5036361;28;20022;-90
2023/01/27 06:36:08;;;;;;;6.90;4.75;;;5.80;99.90;;;;;;5034044;28;20033;-91
2023/01/27 06:38:39;;;;;;;8.50;5.25;;;5.80;99.90;;;;;;5021142;28;20014;-92
2023/01/27 06:41:41;;;;;;;7.97;5.30;;;5.90;99.90;;;;;;5013540;28;20533;-91
2023/01/27 06:44:07;;;;;;;8.60;5.10;;;5.90;99.90;;;;;;4994915;28;20110;-89
2023/01/27 06:46:52;;;;;;;8.27;5.25;;;5.80;99.90;;;;;;4988723;28;20035;-91
2023/01/27 06:49:18;;;;;;;6.45;4.97;;;5.80;99.90;;;;;;4971017;28;20531;-92
2023/01/27 06:51:46;;;;;;;8.20;4.80;;;5.80;99.90;;;;;;4943376;28;20069;-92
2023/01/27 06:54:24;;;;;;;9.10;5.40;;;5.80;99.90;;;;;;4946124;28;20044;-92
2023/01/27 06:56:55;;;;;;;11.00;6.35;;;5.80;99.90;;;;;;4959149;28;20043;-92
2023/01/27 06:59:21;;;;;;;7.40;4.70;;;5.80;99.90;;;;;;4960913;28;20039;-92
2023/01/27 07:01:51;;;;;;;8.10;4.85;;;5.80;99.90;;;;;;4943870;28;20050;-92
2023/01/27 07:04:16;;;;;;;7.20;4.85;;;5.80;99.90;;;;;;4944844;28;20038;-92
2023/01/27 07:06:42;;;;;;;7.15;4.40;;;5.80;99.90;;;;;;4927363;28;20041;-92
2023/01/27 07:09:08;;;;;;;9.30;4.80;;;5.80;99.90;;;;;;4942430;28;20053;-92
2023/01/27 07:11:35;;;;;;;7.95;4.72;;;5.80;99.90;;;;;;4943039;28;20039;-92
2023/01/27 07:14:01;;;;;;;6.82;4.70;;;5.80;99.90;;;;;;4978916;28;20039;-91
2023/01/27 07:16:28;;;;;;;8.77;4.75;;;5.70;99.90;;;;;;4985591;28;20374;-91
2023/01/27 07:18:53;;;;;;;6.88;4.60;;;5.70;99.90;;;;;;5000923;28;20069;-91
2023/01/27 07:21:19;;;;;;;9.00;4.75;;;5.70;99.90;;;;;;4985077;28;20079;-91
2023/01/27 07:23:45;;;;;;;7.15;4.57;;;5.70;99.90;;;;;;5001348;28;20042;-91
2023/01/27 07:26:10;;;;;;;7.75;4.80;;;5.70;99.90;;;;;;4984848;28;20117;-91
2023/01/27 07:28:36;;;;;;;7.78;4.28;;;5.60;99.90;;;;;;5001566;28;20045;-91
2023/01/27 07:31:02;;;;;;;7.70;4.63;;;5.60;99.90;;;;;;4985222;28;20099;-91
2023/01/27 07:33:44;;;;;;;7.07;4.28;;;5.60;99.90;;;;;;5013807;28;20013;-91
2023/01/27 07:36:09;;;;;;;10.02;5.03;;;5.60;99.90;;;;;;5003873;28;20029;-91
2023/01/27 07:38:35;;;;;;;8.40;4.55;;;5.60;99.90;;;;;;5012629;28;20029;-91
2023/01/27 07:41:04;;;;;;;7.15;4.38;;;5.50;99.90;;;;;;5002068;28;20046;-92
2023/01/27 07:43:37;;;;;;;8.20;3.72;;;5.50;99.90;;;;;;5027098;28;20045;-90
2023/01/27 07:46:03;;;;;;;5.88;3.97;;;5.50;99.90;;;;;;5006294;28;20035;-92
2023/01/27 07:48:33;;;;;;;7.18;4.05;;;5.50;99.90;;;;;;4991935;28;20129;-91
2023/01/27 07:50:59;;;;;;;10.95;4.75;;;5.50;99.90;;;;;;5001156;28;20037;-91
2023/01/27 07:53:28;;;;;;;5.90;4.10;;;5.60;99.90;;;;;;4985041;28;20049;-90
2023/01/27 07:55:59;;;;;;;9.25;4.57;;;5.50;99.90;;;;;;4986879;28;20147;-91
2023/01/27 07:58:57;;;;;;;6.55;4.00;;;5.60;99.90;;;;;;5002916;28;20034;-91
2023/01/27 08:01:23;;;;;;;6.38;4.30;;;5.50;99.90;;;;;;4949055;28;20506;-92
2023/01/27 08:07:34;;;;;;;8.00;4.43;;;5.60;99.90;;;;;;5013985;28;20048;-94
2023/01/27 08:10:17;;;;;;;6.95;5.38;;;5.60;99.90;;;;;;5009739;28;20026;-94
2023/01/27 08:12:50;;;;;;;5.45;3.83;;;5.50;99.90;;;;;;4980046;28;20073;-95
2023/01/27 08:15:21;;;;;;;5.82;3.92;;;5.50;99.90;;;;;;5000322;28;20057;-94
2023/01/27 08:17:59;;;;;;;7.78;3.85;;;5.50;99.90;;;;;;4966590;28;20030;-95
2023/01/27 08:23:58;;;;;;;5.90;3.55;;;5.50;99.90;;;;;;5012894;28;20076;-94
2023/01/27 08:26:25;;;;;;;5.78;3.50;;;5.50;99.90;;;;;;4976033;28;20553;-93
2023/01/27 08:28:51;;;;;;;4.82;3.35;;;5.50;99.90;;;;;;4976132;28;20037;-93
2023/01/27 08:31:17;;;;;;;5.72;3.55;;;5.50;99.90;;;;;;4992919;28;20076;-95
2023/01/27 08:33:51;;;;;;;5.35;3.75;;;5.50;99.90;;;;;;4977850;28;20483;-95
2023/01/27 08:36:19;;;;;;;6.97;3.40;;;5.50;99.90;;;;;;4996886;28;20483;-93
2023/01/27 08:38:45;;;;;;;5.10;3.00;;;5.50;99.90;;;;;;5009926;28;20030;-93
2023/01/27 08:41:13;;;;;;;6.38;3.65;;;5.50;99.90;;;;;;5009613;28;20089;-92
2023/01/27 08:43:42;;;;;;;6.55;3.03;;;5.50;99.90;;;;;;5020809;28;20030;-92
2023/01/27 08:46:08;;;;;;;5.25;3.03;;;5.50;99.90;;;;;;4993127;28;20027;-93
2023/01/27 09:09:15;;;;;;;5.07;3.10;;;5.50;99.90;;;;;;5015317;28;20410;-90
2023/01/27 09:21:55;;;;;;;6.47;3.70;;;5.50;99.90;;;;;;4998550;28;20510;-88
2023/01/27 09:24:40;;;;;;;5.35;3.13;;;5.40;99.90;;;;;;4896679;29;20036;-87
2023/01/27 09:27:06;;;;;;;7.63;3.75;;;5.50;99.90;;;;;;4977108;28;20038;-87
2023/01/27 09:29:35;;;;;;;7.95;4.15;;;5.50;99.90;;;;;;4965977;28;20038;-88
2023/01/27 09:32:49;;;;;;;6.38;3.90;;;5.50;99.90;;;;;;4988199;28;20435;-88
2023/01/27 09:35:22;;;;;;;7.25;3.50;;;5.50;99.90;;;;;;4894694;29;20040;-88
2023/01/27 09:38:06;;;;;;;5.78;3.70;;;5.50;99.90;;;;;;4895144;29;20493;-87
2023/01/27 09:40:56;;;;;;;4.88;3.40;;;5.50;99.90;;;;;;4973269;28;20121;-88
2023/01/27 09:44:05;;;;;;;7.05;3.63;;;5.50;99.90;;;;;;4988873;28;20534;-89
2023/01/27 09:47:05;;;;;;;6.50;3.80;;;5.50;99.90;;;;;;5001734;28;20026;-90
2023/01/27 09:50:05;;;;;;;6.70;3.95;;;5.50;99.90;;;;;;5017296;28;20025;-90
2023/01/27 09:52:37;;;;;;;9.27;4.18;;;5.50;99.90;;;;;;5009531;28;20046;-89
2023/01/27 09:55:11;;;;;;;5.85;3.70;;;5.50;99.90;;;;;;5013375;28;20022;-88
2023/01/27 09:58:15;;;;;;;7.25;4.63;;;5.50;99.90;;;;;;5013037;28;20089;-89
2023/01/27 10:00:46;;;;;;;5.07;3.75;;;5.50;99.90;;;;;;5013280;28;20134;-89
2023/01/27 10:03:44;;;;;;;5.55;4.10;;;5.50;99.90;;;;;;4984914;28;20548;-92
2023/01/27 10:06:47;;;;;;;6.55;4.10;;;5.50;99.90;;;;;;4992426;28;20463;-90
2023/01/27 10:13:33;;;;;;;4.97;3.50;;;5.60;99.90;;;;;;5004088;28;20041;-90
2023/01/27 10:19:58;;;;;;;5.60;3.75;;;5.60;99.90;;;;;;5004526;28;20056;-88
2023/01/27 10:23:01;;;;;;;5.80;4.03;;;5.60;99.90;;;;;;5008430;28;20018;-95
2023/01/27 10:28:29;;;;;;;8.65;4.43;;;5.60;99.90;;;;;;5010850;28;20054;-94
2023/01/27 10:31:22;;;;;;;5.85;4.03;;;5.60;99.90;;;;;;4997877;28;20060;-94
2023/01/27 10:34:24;;;;;;;6.80;4.15;;;5.60;99.90;;;;;;4990173;28;20486;-95
2023/01/27 10:37:48;;;;;;;;;;;;;;;;;;;;;
2023/01/27 10:40:43;;;;;;;;;;;;;;;;;;;;;
2023/01/27 10:44:04;;;;;;;;;;;;;;;;;;;;;
2023/01/27 10:49:50;;;;;;;5.95;4.22;;;5.70;99.90;;;;;;4967382;28;20041;-96
2023/01/27 10:55:28;;;;;;;8.55;4.32;;;5.70;99.90;;;;;;5010959;28;20093;-94
2023/01/27 10:58:26;;;;;;;;;;;;;;;;;;;;;
2023/01/27 11:01:27;;;;;;;;;;;;;;;;;;;;;
2023/01/27 11:04:45;;;;;;;6.45;4.25;;;5.70;99.90;;;;;;5003234;28;20048;-95
2023/01/27 11:14:27;;;;;;;;;;;;;;;;;;;;;
2023/01/27 11:17:48;;;;;;;5.95;4.45;;;5.80;99.90;;;;;;4990535;28;20405;-94
2023/01/27 11:23:55;;;;;;;6.20;4.35;;;5.80;99.90;;;;;;4986037;28;20058;-93
2023/01/27 11:26:52;;;;;;;;;;;;;;;;;;;;;
2023/01/27 11:30:25;;;;;;;6.43;3.80;;;5.90;99.90;;;;;;5003723;28;20121;-96
2023/01/27 11:33:22;;;;;;;6.07;3.78;;;5.90;99.90;;;;;;4975704;23;20145;-91
2023/01/27 11:35:49;;;;;;;5.72;3.92;;;5.90;99.90;;;;;;4990753;28;20132;-94
2023/01/27 11:38:19;;;;;;;5.45;3.53;;;6.00;99.90;;;;;;4989434;28;20499;-92
2023/01/27 11:40:46;;;;;;;6.07;4.35;;;6.00;99.90;;;;;;4976414;28;20479;-88
2023/01/27 11:43:22;;;;;;;6.13;4.30;;;6.00;99.90;;;;;;4981169;28;20057;-90
2023/01/27 11:45:51;;;;;;;6.50;4.32;;;6.10;99.90;;;;;;4997167;28;20046;-90
2023/01/27 11:48:18;;;;;;;6.85;4.22;;;6.10;99.90;;;;;;4997427;28;20026;-90
2023/01/27 11:50:45;;;;;;;5.97;3.42;;;6.10;99.90;;;;;;4996698;28;20545;-85
2023/01/27 11:53:23;;;;;;;5.40;3.70;;;6.10;99.90;;;;;;4996355;28;20478;-85
2023/01/27 11:56:01;;;;;;;5.40;3.95;;;6.10;99.90;;;;;;5013913;28;20037;-86
2023/01/27 11:58:39;;;;;;;6.55;3.97;;;6.20;99.90;;;;;;4997111;28;20038;-85
2023/01/27 12:01:12;;;;;;;5.78;3.85;;;6.10;99.90;;;;;;5014018;28;20125;-85
2023/01/27 12:04:12;;;;;;;5.53;3.80;;;6.20;99.90;;;;;;4996280;28;20033;-84
2023/01/27 12:06:43;;;;;;;6.22;4.07;;;6.20;99.90;;;;;;4995668;28;20056;-85
2023/01/27 12:09:41;;;;;;;5.07;3.63;;;6.20;99.90;;;;;;5014555;28;20084;-84
2023/01/27 12:12:19;;;;;;;6.32;3.78;;;6.30;99.90;;;;;;4948559;28;20038;-84
2023/01/27 12:14:52;;;;;;;5.13;3.90;;;6.20;99.90;;;;;;4996889;28;20425;-85
2023/01/27 12:17:24;;;;;;;5.55;4.15;;;6.30;99.90;;;;;;5014335;28;20037;-85
2023/01/27 12:19:53;;;;;;;6.95;3.67;;;6.30;99.90;;;;;;4996335;28;20034;-85
2023/01/27 12:22:29;;;;;;;5.95;4.25;;;6.30;99.90;;;;;;5029023;28;20058;-85
2023/01/27 12:25:00;;;;;;;4.90;3.60;;;6.30;99.90;;;;;;4996207;28;20400;-84
2023/01/27 12:27:28;;;;;;;6.43;3.80;;;6.40;99.90;;;;;;4996282;28;20145;-87
2023/01/27 12:30:01;;;;;;;5.50;3.85;;;6.40;99.90;;;;;;5016208;28;20038;-85
2023/01/27 12:32:43;;;;;;;5.63;4.13;;;6.40;99.90;;;;;;4990590;28;20209;-87
2023/01/27 12:35:34;;;;;;;7.18;4.28;;;6.40;99.90;;;;;;4999431;28;20042;-87
2023/01/27 12:38:11;;;;;;;6.72;4.28;;;6.40;99.90;;;;;;4964788;28;20042;-87
2023/01/27 12:40:40;;;;;;;6.45;4.03;;;6.40;99.90;;;;;;4981838;28;20116;-86
2023/01/27 12:43:12;;;;;;;5.90;4.10;;;6.40;99.90;;;;;;4980768;28;20395;-86
2023/01/27 12:45:40;;;;;;;6.65;3.83;;;6.50;99.90;;;;;;4975291;28;20447;-87
2023/01/27 12:48:08;;;;;;;5.35;3.90;;;6.50;99.90;;;;;;4980772;28;20034;-85
2023/01/27 12:50:36;;;;;;;5.50;3.55;;;6.50;99.90;;;;;;4980853;28;20045;-85
2023/01/27 12:53:05;;;;;;;5.43;3.72;;;6.60;99.90;;;;;;4980399;28;20022;-86
2023/01/27 12:58:53;;;;;;;7.63;4.15;;;6.60;99.90;;;;;;4998060;28;20038;-86
2023/01/27 13:01:52;;;;;;;5.82;4.05;;;6.60;99.90;;;;;;4983723;28;20035;-86
2023/01/27 13:04:31;;;;;;;5.75;4.22;;;6.60;99.90;;;;;;4984741;28;20034;-89
2023/01/27 13:07:39;;;;;;;7.32;4.60;;;6.60;99.90;;;;;;4980507;28;20029;-88
2023/01/27 13:10:18;;;;;;;6.07;4.63;;;6.60;99.90;;;;;;4940907;29;20035;-89
2023/01/27 13:13:08;;;;;;;5.78;4.43;;;6.60;99.90;;;;;;4941281;29;20178;-89
2023/01/27 13:15:34;;;;;;;6.27;4.30;;;6.60;99.90;;;;;;4941221;29;20094;-89
2023/01/27 13:21:59;;;;;;;7.70;4.53;;;6.60;99.90;;;;;;4957487;29;20114;-88
2023/01/27 13:24:39;;;;;;;5.28;3.92;;;6.60;99.90;;;;;;4940477;29;20047;-87
2023/01/27 13:27:13;;;;;;;5.67;4.10;;;6.60;99.90;;;;;;4940497;29;20487;-87
2023/01/27 13:29:40;;;;;;;5.60;4.45;;;6.50;99.90;;;;;;4925161;29;20369;-87
2023/01/27 13:32:42;;;;;;;5.40;3.92;;;6.60;99.90;;;;;;4940211;29;20047;-87
2023/01/27 13:35:32;;;;;;;6.97;4.25;;;6.60;99.90;;;;;;4955920;29;20480;-87
2023/01/27 13:38:17;;;;;;;6.90;4.32;;;6.60;99.90;;;;;;4940355;29;20396;-88
2023/01/27 13:40:47;;;;;;;6.00;4.47;;;6.50;99.90;;;;;;4955208;28;20471;-88
2023/01/27 13:43:33;;;;;;;6.18;4.15;;;6.50;99.90;;;;;;4963872;28;20480;-88
2023/01/27 13:46:25;;;;;;;6.63;5.22;;;6.60;99.90;;;;;;4979923;28;20031;-88
2023/01/27 13:49:01;;;;;;;6.63;5.20;;;6.60;99.90;;;;;;4979961;28;20045;-89
2023/01/27 13:51:32;;;;;;;6.53;4.82;;;6.50;99.90;;;;;;4979769;28;20030;-89
2023/01/27 13:54:04;;;;;;;6.10;4.63;;;6.50;99.90;;;;;;4963916;28;20064;-89
2023/01/27 13:57:12;;;;;;;5.93;4.60;;;6.50;99.90;;;;;;4979565;28;20031;-89
2023/01/27 13:59:57;;;;;;;7.25;4.50;;;6.50;99.90;;;;;;4979610;28;20065;-89
2023/01/27 14:02:43;;;;;;;6.20;4.65;;;6.50;99.90;;;;;;4979563;28;20085;-89
2023/01/27 14:05:44;;;;;;;7.43;4.70;;;6.50;99.90;;;;;;4979234;28;20074;-88
2023/01/27 14:08:34;;;;;;;8.13;5.15;;;6.50;99.90;;;;;;4979486;28;20394;-89
2023/01/27 14:11:42;;;;;;;7.32;5.32;;;6.40;99.90;;;;;;4982408;28;20030;-89
2023/01/27 14:14:11;;;;;;;6.85;5.05;;;6.40;99.90;;;;;;5004166;28;20026;-87
2023/01/27 14:17:02;;;;;;;7.10;5.28;;;6.40;99.90;;;;;;5020655;28;20038;-89
2023/01/27 14:19:50;;;;;;;8.38;6.03;;;6.40;99.90;;;;;;5004116;28;20026;-88
2023/01/27 14:22:51;;;;;;;7.97;5.45;;;6.40;99.90;;;;;;5003979;28;20026;-88
2023/01/27 14:25:22;;;;;;;8.32;5.65;;;6.30;99.90;;;;;;4987561;28;20094;-90
2023/01/27 14:30:56;;;;;;;7.25;5.45;;;6.30;99.90;;;;;;4981774;28;20618;-87
2023/01/27 14:33:54;;;;;;;8.48;5.93;;;6.30;99.90;;;;;;4978599;28;20046;-87
2023/01/27 14:36:29;;;;;;;7.75;5.95;;;6.30;99.90;;;;;;4995958;28;20590;-89
2023/01/27 14:39:18;;;;;;;8.95;6.28;;;6.30;99.90;;;;;;4978971;28;20096;-89
2023/01/27 14:41:59;;;;;;;9.18;6.03;;;6.30;99.90;;;;;;4979264;28;20045;-88
2023/01/27 14:45:00;;;;;;;7.85;6.32;;;6.30;99.90;;;;;;4978720;28;20132;-89
2023/01/27 14:47:42;;;;;;;10.68;6.20;;;6.30;99.90;;;;;;4978296;28;20471;-87
2023/01/27 14:50:23;;;;;;;7.60;5.63;;;6.30;99.90;;;;;;4978666;28;20030;-86
2023/01/27 14:53:34;;;;;;;8.60;6.20;;;6.30;99.90;;;;;;4978367;28;20038;-87
2023/01/27 14:56:22;;;;;;;7.75;5.70;;;6.30;99.90;;;;;;4900980;29;20039;-86
2023/01/27 14:59:00;;;;;;;9.57;7.10;;;6.30;99.90;;;;;;4932853;29;20040;-89
2023/01/27 15:01:38;;;;;;;8.90;6.82;;;6.30;99.90;;;;;;4991322;28;20039;-89
2023/01/27 15:04:22;;;;;;;9.98;6.43;;;6.30;99.90;;;;;;4996441;28;20041;-89
2023/01/27 15:07:27;;;;;;;9.23;6.47;;;6.30;99.90;;;;;;4979149;28;20030;-91
2023/01/27 15:10:11;;;;;;;10.15;6.80;;;6.30;99.90;;;;;;4968862;28;20117;-90
2023/01/27 15:12:52;;;;;;;8.55;6.43;;;6.30;99.90;;;;;;4978884;28;20039;-90
2023/01/27 15:15:33;;;;;;;;;;;6.30;99.90;;;;;;4979092;28;20120;-90
2023/01/27 15:18:41;;;;;;;7.35;5.38;;;6.30;99.90;;;;;;4978290;28;19935;-88
2023/01/27 15:21:37;;;;;;;8.20;5.20;;;6.30;99.90;;;;;;4977440;28;20609;-88
2023/01/27 15:24:24;;;;;;;8.32;5.30;;;6.30;99.90;;;;;;4978245;28;20038;-88
2023/01/27 15:26:51;;;;;;;7.38;5.22;;;6.30;99.90;;;;;;4978022;28;20042;-86
2023/01/27 15:29:22;;;;;;;8.50;5.63;;;6.20;99.90;;;;;;4961481;28;20045;-86
2023/01/27 15:32:16;;;;;;;8.15;5.45;;;6.20;99.90;;;;;;4979780;28;20038;-87
2023/01/27 15:35:20;;;;;;;7.90;5.55;;;6.20;99.90;;;;;;5009947;28;20065;-92
2023/01/27 15:37:58;;;;;;;7.38;5.45;;;6.20;99.90;;;;;;4992720;28;20073;-92
2023/01/27 15:40:26;;;;;;;6.68;4.93;;;6.20;99.90;;;;;;4983413;28;20045;-91
2023/01/27 15:42:59;;;;;;;7.07;5.28;;;6.20;99.90;;;;;;4997482;28;20038;-91
2023/01/27 15:45:50;;;;;;;6.50;4.93;;;6.20;99.90;;;;;;4996131;28;20142;-92
2023/01/27 15:48:32;;;;;;;6.13;4.43;;;6.20;99.90;;;;;;4993045;28;20038;-88
2023/01/27 15:51:06;;;;;;;6.50;4.88;;;6.20;99.90;;;;;;4997220;28;20034;-95
2023/01/27 15:53:40;;;;;;;6.10;4.78;;;6.20;99.90;;;;;;4997885;28;20030;-94
2023/01/27 15:56:16;;;;;;;6.32;4.85;;;6.20;99.90;;;;;;4997898;28;20034;-95
2023/01/27 16:01:40;;;;;;;5.72;4.32;;;6.20;99.90;;;;;;5015815;28;20092;-95
2023/01/27 16:04:22;;;;;;;7.85;4.43;;;6.20;99.90;;;;;;4980821;28;20041;-94